• Join FlightAware (Why Join?)
  • Login
  • US Flag 
01:06AM EDT


 

Airport Tracker/Info


-or-


 

Live Flight TrackerFlight Track Log ✈ OPT438 ✈ 23-Feb-2014 ✈ KTEB - MYNN / NAS

Flight Track Log - Related Links

Times and Time Zones

All times are in EST time to prevent confusion due to time zone crossing. See the OPT438 flight status page for this flight to view local times or setup timezone preferences in your user account.

Time Position Orientation Groundspeed Altitude Reporting Facility
EST Latitude Longitude Course Direction KTS MPH feet Rate Location/Type
01:48PM 40.8167 -74.1333 180° South 205 236 1,500  Level New York TRACON
01:49PM 40.8000 -74.2167 255° West 225 259 3,800 2,160 Climbing New York TRACON
01:50PM 40.7333 -74.2500 201° Southwest 234 269 5,900 2,640 Climbing New York TRACON
01:51PM 40.6667 -74.2500 180° South 250 288 9,100 3,480 Climbing New York TRACON
01:52PM 40.6000 -74.2667 191° South 249 287 12,900 3,000 Climbing New York TRACON
01:53PM 40.3092 -74.1500 180° South  Level FlightAware Approximate
01:53PM 40.5167 -74.2667 180° South 291 335 15,200  Level New York TRACON
01:54PM 40.4333 -74.2667 180° South 307 353 16,900 960 Climbing New York TRACON
01:55PM 40.3681 -74.2714 183° South 320 368 17,000  Climbing New York Center
01:56PM 40.2828 -74.2672 178° South 315 362 17,000  Level New York Center
01:57PM 40.1994 -74.2628 178° South 310 357 17,000 180 Level New York Center
01:58PM 40.1119 -74.2586 178° South 310 357 17,400 1,800 Climbing New York Center
01:59PM 39.9544 -74.3006 192° South 301 346 22,200 2,280 Climbing Washington Center
02:00PM 39.8886 -74.3667 218° Southwest 296 341 24,000 840 Climbing Washington Center
02:01PM 39.8203 -74.4300 215° Southwest 306 352 24,000 960 Level Washington Center
02:02PM 39.7628 -74.5064 226° Southwest 306 352 26,000 1,980 Climbing Washington Center
02:03PM 39.7111 -74.5719 224° Southwest 306 352 28,000 2,220 Climbing Washington Center
02:04PM 39.6578 -74.6428 226° Southwest 286 329 30,500 1,860 Climbing Washington Center
02:05PM 39.6081 -74.7108 227° Southwest 273 314 31,700 900 Climbing Washington Center
02:06PM 39.5525 -74.7814 224° Southwest 278 320 32,400 600 Climbing Washington Center
02:07PM 39.5008 -74.8628 231° Southwest 285 328 33,000 840 Climbing Washington Center
02:08PM 39.4597 -74.9519 239° Southwest 290 334 34,200 1,020 Climbing Washington Center
02:09PM 39.4058 -75.0303 228° Southwest 296 341 35,100 660 Climbing Washington Center
02:10PM 39.3250 -75.0925 211° Southwest 310 357 35,600 480 Climbing Washington Center
02:11PM 39.2397 -75.1386 203° Southwest 323 372 36,100 540 Climbing Washington Center
02:12PM 39.1461 -75.1794 199° South 340 391 36,700 660 Climbing Washington Center
02:13PM 39.0564 -75.2175 198° South 348 400 37,400 600 Climbing Washington Center
02:14PM 38.9650 -75.2500 195° South 348 400 38,000 540 Climbing Washington Center
02:15PM 38.8753 -75.2931 200° South 343 395 38,500 420 Climbing Washington Center
02:16PM 38.7858 -75.3253 196° South 343 395 38,900 300 Climbing Washington Center
02:17PM 38.6961 -75.3628 198° South 343 395 39,200 240 Climbing Washington Center
02:18PM 38.6067 -75.4003 198° South 343 395 39,500 240 Climbing Washington Center
02:19PM 38.5192 -75.4431 201° Southwest 343 395 39,800 240 Climbing Washington Center
02:20PM 38.4275 -75.4831 199° South 348 400 40,000 60 Climbing Washington Center
02:21PM 38.3358 -75.5150 195° South 348 400 40,000  Level Washington Center
02:22PM 38.2378 -75.5547 198° South 348 400 40,000  Level Washington Center
02:23PM 38.1439 -75.5944 198° South 353 406 40,000  Level Washington Center
02:24PM 38.0481 -75.6367 199° South 358 412 40,000  Level Washington Center
02:25PM 37.9583 -75.6839 203° Southwest 358 412 40,000  Level Washington Center
02:26PM 37.8622 -75.7233 198° South 363 418 40,000  Level Washington Center
02:27PM 37.7664 -75.7625 198° South 369 425 40,000  Level Washington Center
02:28PM 37.6703 -75.8044 199° South 369 425 40,000 -180 Level Washington Center
02:29PM 37.5661 -75.8225 188° South 369 425 39,700 -420 Descending Washington Center
02:30PM 37.4533 -75.8142 177° South 389 448 39,200 -360 Descending Washington Center
02:31PM 37.3408 -75.8086 178° South 400 460 39,000 -120 Descending Washington Center
02:32PM 37.2281 -75.8031 178° South 406 467 39,000 240 Level Washington Center
02:33PM 37.1175 -75.7950 177° South 406 467 39,500 480 Climbing Washington Center
02:34PM 37.0069 -75.7869 177° South 406 467 40,000 240 Climbing Washington Center
02:35PM 36.8986 -75.8075 189° South 393 452 40,000  Level Washington Center
02:36PM 36.8192 -75.8669 211° Southwest 367 422 40,000  Level Washington Center
02:37PM 36.7375 -75.9264 210° Southwest 355 409 40,000  Level Washington Center
02:38PM 36.6414 -75.9931 209° Southwest 355 409 40,000  Level Washington Center
02:39PM 36.5600 -76.0547 211° Southwest 355 409 40,000  Level Washington Center
02:40PM 36.4761 -76.1164 211° Southwest 355 409 40,000  Level Washington Center
02:41PM 36.3944 -76.1750 210° Southwest 350 403 40,000  Level Washington Center
02:42PM 36.3108 -76.2339 210° Southwest 350 403 40,000  Level Washington Center
02:43PM 36.2292 -76.2925 210° Southwest 350 403 40,000  Level Washington Center
02:44PM 36.1453 -76.3508 209° Southwest 350 403 40,000  Level Washington Center
02:45PM 36.0636 -76.4092 210° Southwest 350 403 40,000  Level Washington Center
02:46PM 35.9817 -76.4672 210° Southwest 345 397 40,000  Level Washington Center
02:47PM 35.8978 -76.5253 209° Southwest 345 397 40,000  Level Washington Center
02:48PM 35.8139 -76.5833 209° Southwest 345 397 40,000  Level Washington Center
02:49PM 35.7319 -76.6411 210° Southwest 345 397 40,000  Level Washington Center
02:50PM 35.6503 -76.7014 211° Southwest 345 397 40,000  Level Washington Center
02:51PM 35.5683 -76.7564 209° Southwest 345 397 40,000  Level Washington Center
02:52PM 35.4947 -76.8114 211° Southwest 345 397 40,000  Level Washington Center
02:53PM 35.4106 -76.8714 210° Southwest 345 397 40,000  Level Washington Center
02:54PM 35.3264 -76.9286 209° Southwest 345 397 40,000  Level Washington Center
02:55PM 35.2425 -76.9883 210° Southwest 345 397 40,000  Level Washington Center
02:56PM 35.1603 -77.0453 210° Southwest 345 397 40,000  Level Washington Center
02:57PM 35.0761 -77.1072 211° Southwest 345 397 40,000  Level Washington Center
02:58PM 34.9919 -77.1614 208° Southwest 345 397 40,000  Level Washington Center
02:59PM 34.9119 -77.2156 209° Southwest 345 397 40,000  Level Washington Center
03:00PM 34.8275 -77.2772 211° Southwest 345 397 40,000  Level Washington Center
03:01PM 34.7456 -77.3336 209° Southwest 345 397 40,000  Level Washington Center
03:02PM 34.6633 -77.3900 209° Southwest 340 391 40,000  Level Washington Center
03:03PM 34.5789 -77.4461 209° Southwest 340 391 40,000  Level Washington Center
03:04PM 34.4764 -77.4739 193° South 355 409 40,000  Level Washington Center
03:05PM 34.3736 -77.4967 190° South 368 423 40,000  Level Washington Center
03:06PM 34.2689 -77.5194 190° South 381 438 40,000  Level Washington Center
03:07PM 34.1642 -77.5422 190° South 386 444 40,000  Level Washington Center
03:08PM 34.0597 -77.5636 190° South 388 447 40,000  Level Jacksonville Center
03:09PM 33.9625 -77.5847 190° South 389 448 40,000  Level Jacksonville Center
03:10PM 33.8592 -77.6033 189° South 389 448 40,000  Level Jacksonville Center
03:11PM 33.7539 -77.6297 192° South 389 448 40,000  Level Jacksonville Center
03:12PM 33.6483 -77.6561 192° South 389 448 40,000  Level Jacksonville Center
03:13PM 33.5428 -77.6772 189° South 389 448 40,000  Level Jacksonville Center
03:14PM 33.4394 -77.6958 189° South 389 448 40,000  Level Jacksonville Center
03:15PM 33.3339 -77.7217 192° South 389 448 40,000  Level Jacksonville Center
03:16PM 33.2264 -77.7453 190° South 389 448 40,000  Level Jacksonville Center
03:17PM 33.1208 -77.7664 190° South 389 448 40,000  Level Jacksonville Center
03:18PM 33.0153 -77.7872 189° South 389 448 40,000  Level Jacksonville Center
03:19PM 32.9100 -77.8131 192° South 389 448 40,000  Level Jacksonville Center
03:20PM 32.8022 -77.8339 189° South 389 448 40,000  Level Jacksonville Center
03:21PM 32.6967 -77.8547 189° South 389 448 40,000  Level Jacksonville Center
03:22PM 32.5847 -77.8733 188° South 394 453 40,000  Level Jacksonville Center
03:23PM 32.4717 -77.8672 177° South 399 459 40,000  Level Jacksonville Center
03:24PM 32.3564 -77.8564 175° South 406 467 40,000  Level Jacksonville Center
03:25PM 32.2414 -77.8481 176° South 411 473 40,000  Level Jacksonville Center
03:26PM 32.1244 -77.8469 180° South 417 480 40,000  Level Jacksonville Center
03:27PM 32.0094 -77.8411 178° South 417 480 40,000  Level Jacksonville Center
03:28PM 31.8919 -77.8281 175° South 422 486 40,000  Level Jacksonville Center
03:29PM 31.7769 -77.8244 178° South 422 486 40,000  Level Jacksonville Center
03:30PM 31.6597 -77.8139 176° South 422 486 40,000  Level Jacksonville Center
03:31PM 31.5428 -77.8128 180° South 422 486 40,000  Level Jacksonville Center
03:32PM 31.4256 -77.8047 177° South 427 491 40,000  Level Jacksonville Center
03:33PM 31.3086 -77.8036 180° South 424 488 40,000  Level Jacksonville Center
03:34PM 31.1894 -77.7981 178° South 429 494 40,000  Level Jacksonville Center
03:35PM 31.0722 -77.7875 176° South 424 488 40,000  Level Jacksonville Center
03:36PM 30.9569 -77.7767 175° South 431 496 40,000  Level Jacksonville Center
03:37PM 30.8375 -77.7661 176° South 425 489 40,000  Level Jacksonville Center
03:38PM 30.7206 -77.7606 178° South 420 483 40,000  Level Jacksonville Center
03:40PM 30.4861 -77.7533 178° South 407 468 40,000  Level Miami Center
03:41PM 30.3778 -77.7503 179° South 414 476 40,000 -60 Level Miami Center
03:42PM 30.2631 -77.7517 181° South 413 475 39,900  Descending Miami Center
03:43PM 30.1442 -77.7433 177° South 413 475 40,000  Climbing Miami Center
03:44PM 30.0275 -77.7353 177° South 419 482 40,000 -60 Level Miami Center
03:45PM 29.9044 -77.7272 177° South 428 493 39,900 -60 Descending Miami Center
03:46PM 29.7981 -77.7286 181° South 416 479 39,900  Level Miami Center
03:47PM 29.6731 -77.7158 175° South 424 488 40,000  Climbing Miami Center
03:48PM 29.5606 -77.7125 179° South 418 481 40,000  Level Miami Center
03:49PM 29.4375 -77.7044 177° South 425 489 40,000 -60 Level Miami Center
03:50PM 29.3186 -77.6964 177° South 425 489 39,900  Descending Miami Center
03:51PM 29.2019 -77.6906 178° South 425 489 40,000  Climbing Miami Center
03:52PM 29.0872 -77.6850 178° South 429 494 40,000  Level Miami Center
03:53PM 28.9725 -77.6794 178° South 417 480 40,000 -60 Level Miami Center
03:54PM 28.8533 -77.6739 178° South 423 487 39,900  Descending Miami Center
03:55PM 28.7344 -77.6658 177° South 423 487 40,000  Climbing Miami Center
03:56PM 28.6219 -77.6628 179° South 417 480 39,900 -420 Descending Miami Center
03:57PM 28.4989 -77.6547 177° South 424 488 39,200 -660 Descending Miami Center
03:58PM 28.3881 -77.6492 177° South 418 481 38,600 -660 Descending Miami Center
03:59PM 28.2756 -77.6436 178° South 418 481 37,900 -660 Descending Miami Center
04:00PM 28.1606 -77.6383 178° South 418 481 37,300 -660 Descending Miami Center
04:01PM 28.0439 -77.6328 178° South 418 481 36,600 -660 Descending Miami Center
04:02PM 27.9353 -77.6272 177° South 418 481 36,000 -660 Descending Miami Center
04:03PM 27.8161 -77.6194 177° South 410 472 35,300 -660 Descending Miami Center
04:04PM 27.6972 -77.6139 178° South 417 480 34,700 -600 Descending Miami Center
04:05PM 27.5950 -77.6064 176° South 422 486 34,100 -360 Descending Miami Center
04:06PM 27.4800 -77.5961 175° South 422 486 34,000 -60 Descending Miami Center
04:07PM 27.3611 -77.6000 182° South 422 486 34,000  Level Miami Center
04:08PM 27.2464 -77.5806 171° South 422 486 34,000 -360 Level Miami Center
04:09PM 27.1167 -77.5822 181° South 422 486 33,300 -780 Descending Miami Center
04:10PM 26.9956 -77.5744 177° South 422 486 32,500 -900 Descending Miami Center
04:11PM 26.8767 -77.5667 177° South 427 491 31,600 -900 Descending Miami Center
04:12PM 26.7575 -77.5567 176° South 427 491 30,800 -900 Descending Miami Center
04:13PM 26.6386 -77.5467 176° South 427 491 29,900 -3,420 Descending Miami Center
04:14PM 26.5194 -77.5392 177° South 427 491 24,000 -900 Descending Miami Center
04:15PM 26.3983 -77.5314 177° South 433 498 28,200 1,680 Climbing Miami Center
04:16PM 26.2750 -77.5239 177° South 439 505 27,400 -1,560 Descending Miami Center
04:17PM 26.1539 -77.5186 178° South 444 511 25,100 -2,640 Descending Miami Center
04:18PM 26.0433 -77.5108 176° South 429 494 22,200 -2,760 Descending Miami Center
04:19PM 25.9389 -77.5033 176° South 400 460 19,600 -2,640 Descending Miami Center
04:20PM 25.8386 -77.4983 177° South 380 437 17,000 -2,580 Descending Miami Center
04:21PM 25.7444 -77.4933 177° South 363 418 14,500 -2,100 Descending Miami Center
04:22PM 25.6506 -77.4903 178° South 351 404 12,900 -1,500 Descending Miami Center
04:23PM 25.5689 -77.5153 195° South 322 371 11,600 -1,320 Descending Miami Center